createdAt,value
2023-04-23T00:00:34.366Z,10.58
2023-04-23T00:03:26.172Z,10.56
2023-04-23T00:06:12.268Z,10.52
2023-04-23T00:08:42.918Z,10.50
2023-04-23T00:11:10.441Z,10.49
2023-04-23T00:13:38.332Z,10.48
2023-04-23T00:16:06.028Z,10.48
2023-04-23T00:18:33.376Z,10.46
2023-04-23T00:21:03.284Z,10.44
2023-04-23T00:23:30.387Z,10.43
2023-04-23T00:25:57.697Z,10.42
2023-04-23T00:28:24.923Z,10.39
2023-04-23T00:30:51.840Z,10.35
2023-04-23T00:33:19.237Z,10.31
2023-04-23T00:35:49.335Z,10.27
2023-04-23T00:38:16.926Z,10.23
2023-04-23T00:40:44.107Z,10.17
2023-04-23T00:43:11.916Z,10.12
2023-04-23T00:45:39.000Z,10.11
2023-04-23T00:48:07.333Z,10.10
2023-04-23T00:50:34.529Z,10.06
2023-04-23T00:53:01.615Z,10.02
2023-04-23T00:55:28.576Z,10.00
2023-04-23T00:57:56.031Z,9.98
2023-04-23T01:00:23.699Z,9.97
2023-04-23T01:02:53.230Z,9.94
2023-04-23T01:05:23.074Z,9.92
2023-04-23T01:07:51.552Z,9.91
2023-04-23T01:10:18.894Z,9.91
2023-04-23T01:12:47.082Z,9.91
2023-04-23T01:15:14.509Z,9.91
2023-04-23T01:17:41.786Z,9.89
2023-04-23T01:20:10.015Z,9.90
2023-04-23T01:22:39.111Z,9.88
2023-04-23T01:25:08.399Z,9.88
2023-04-23T01:27:36.419Z,9.87
2023-04-23T01:30:05.152Z,9.89
2023-04-23T01:32:34.433Z,9.90
2023-04-23T01:35:03.062Z,9.90
2023-04-23T01:37:31.784Z,9.90
2023-04-23T01:39:59.451Z,9.88
2023-04-23T01:42:27.060Z,9.89
2023-04-23T01:44:54.544Z,9.88
2023-04-23T01:47:22.249Z,9.85
2023-04-23T01:49:49.828Z,9.81
2023-04-23T01:52:17.254Z,9.79
2023-04-23T01:54:44.534Z,9.78
2023-04-23T01:57:13.155Z,9.78
2023-04-23T01:59:41.287Z,9.78
2023-04-23T02:02:14.119Z,9.79
2023-04-23T02:04:43.267Z,9.79
2023-04-23T02:07:10.978Z,9.79
2023-04-23T02:09:38.279Z,9.78
2023-04-23T02:12:06.003Z,9.78
2023-04-23T02:14:33.257Z,9.77
2023-04-23T02:17:00.762Z,9.78
2023-04-23T02:19:28.190Z,9.79
2023-04-23T02:21:55.883Z,9.78
2023-04-23T02:24:22.856Z,9.79
2023-04-23T02:26:50.354Z,9.78
2023-04-23T02:29:17.383Z,9.81
2023-04-23T02:31:44.570Z,9.81
2023-04-23T02:34:12.257Z,9.80
2023-04-23T02:36:39.704Z,9.80
2023-04-23T02:39:07.682Z,9.80
2023-04-23T02:41:35.195Z,9.79
2023-04-23T02:44:02.217Z,9.76
2023-04-23T02:46:29.805Z,9.75
2023-04-23T02:48:59.953Z,9.74
2023-04-23T02:51:27.767Z,9.73
2023-04-23T02:53:55.751Z,9.74
2023-04-23T02:56:23.355Z,9.73
2023-04-23T02:58:51.584Z,9.73
2023-04-23T03:01:19.563Z,9.73
2023-04-23T03:03:47.452Z,9.73
2023-04-23T03:06:15.438Z,9.73
2023-04-23T03:08:43.115Z,9.75
2023-04-23T03:11:11.252Z,9.75
2023-04-23T03:13:39.025Z,9.74
2023-04-23T03:16:07.314Z,9.76
2023-04-23T03:18:35.354Z,9.76
2023-04-23T03:21:03.969Z,9.77
2023-04-23T03:23:32.168Z,9.79
2023-04-23T03:25:59.157Z,9.81
2023-04-23T03:28:26.638Z,9.83
2023-04-23T03:30:53.931Z,9.87
2023-04-23T03:33:37.193Z,9.93
2023-04-23T03:36:06.194Z,9.95
2023-04-23T03:38:34.287Z,10.01
2023-04-23T03:41:03.903Z,10.14
2023-04-23T03:43:34.041Z,10.19
2023-04-23T03:46:05.365Z,10.29
2023-04-23T03:48:37.342Z,10.33
2023-04-23T03:51:10.385Z,10.41
2023-04-23T03:53:45.175Z,10.53
2023-04-23T03:56:30.968Z,10.62
2023-04-23T03:59:13.308Z,10.67
2023-04-23T04:01:41.022Z,10.77
2023-04-23T04:04:09.190Z,10.88
2023-04-23T04:06:37.075Z,10.97
2023-04-23T04:09:04.472Z,11.07
2023-04-23T04:11:31.680Z,11.20
2023-04-23T04:13:59.367Z,11.29
2023-04-23T04:16:27.224Z,11.41
2023-04-23T04:18:56.609Z,11.55
2023-04-23T04:21:23.943Z,11.67
2023-04-23T04:23:51.346Z,11.80
2023-04-23T04:26:19.301Z,11.96
2023-04-23T04:28:47.174Z,12.04
2023-04-23T04:31:16.401Z,12.17
2023-04-23T04:33:46.802Z,12.31
2023-04-23T04:36:15.998Z,12.47
2023-04-23T04:38:44.781Z,12.64
2023-04-23T04:41:12.293Z,12.80
2023-04-23T04:43:41.823Z,12.98
2023-04-23T04:46:12.221Z,13.15
2023-04-23T04:48:41.102Z,13.35
2023-04-23T04:51:08.869Z,13.55
2023-04-23T04:53:36.465Z,13.73
2023-04-23T04:56:04.417Z,13.88
2023-04-23T04:58:32.074Z,14.06
2023-04-23T05:01:00.062Z,14.21
2023-04-23T05:03:52.198Z,14.49
2023-04-23T05:06:20.238Z,14.73
2023-04-23T05:08:49.077Z,15.00
2023-04-23T05:11:18.845Z,15.20
2023-04-23T05:13:47.361Z,15.42
2023-04-23T05:16:15.474Z,15.63
2023-04-23T05:18:47.071Z,15.88
2023-04-23T05:21:16.421Z,16.11
2023-04-23T05:23:43.778Z,16.34
2023-04-23T05:26:12.094Z,16.54
2023-04-23T05:28:39.933Z,16.73
2023-04-23T05:31:07.808Z,16.93
2023-04-23T05:33:46.378Z,17.15
2023-04-23T05:36:17.500Z,17.34
2023-04-23T05:38:45.433Z,17.55
2023-04-23T05:41:13.164Z,17.79
2023-04-23T05:43:41.193Z,18.07
2023-04-23T05:46:15.330Z,18.36
2023-04-23T05:48:43.414Z,18.69
2023-04-23T05:51:12.722Z,19.01
2023-04-23T05:53:40.756Z,19.18
2023-04-23T05:56:08.751Z,19.42
2023-04-23T05:58:37.362Z,19.67
2023-04-23T06:01:05.579Z,20.06
2023-04-23T06:03:33.339Z,20.44
2023-04-23T06:06:00.954Z,20.60
2023-04-23T06:08:28.503Z,20.83
2023-04-23T06:10:56.467Z,20.80
2023-04-23T06:13:23.971Z,21.13
2023-04-23T06:15:51.992Z,21.51
2023-04-23T06:18:19.310Z,21.94
2023-04-23T06:20:48.570Z,22.27
2023-04-23T06:23:16.136Z,22.41
2023-04-23T06:25:44.095Z,22.58
2023-04-23T06:28:11.705Z,22.87
2023-04-23T06:31:05.821Z,23.46
2023-04-23T06:33:34.692Z,23.92
2023-04-23T06:36:01.634Z,24.81
2023-04-23T06:38:29.200Z,25.22
2023-04-23T06:40:57.500Z,25.53
2023-04-23T06:43:25.955Z,25.84
2023-04-23T06:46:11.653Z,26.97
2023-04-23T06:48:40.037Z,27.85
2023-04-23T06:51:08.501Z,28.60
2023-04-23T06:53:37.818Z,30.00
2023-04-23T06:56:05.814Z,29.67
2023-04-23T06:58:34.559Z,29.99
2023-04-23T07:01:12.104Z,30.68
2023-04-23T07:03:40.499Z,31.31
2023-04-23T07:06:09.155Z,31.85
2023-04-23T07:08:36.967Z,32.51
2023-04-23T07:11:05.191Z,34.11
2023-04-23T07:13:33.870Z,35.35
2023-04-23T07:16:01.962Z,35.74
2023-04-23T07:18:36.369Z,36.86
2023-04-23T07:21:04.290Z,38.33
2023-04-23T07:23:31.796Z,37.98
2023-04-23T07:25:59.896Z,37.60
2023-04-23T07:28:28.072Z,38.49
2023-04-23T07:30:56.753Z,39.14
2023-04-23T07:33:23.909Z,39.50
2023-04-23T07:35:52.143Z,40.00
2023-04-23T07:38:20.814Z,40.34
2023-04-23T07:40:48.645Z,40.44
2023-04-23T07:43:18.916Z,40.75
2023-04-23T07:45:47.449Z,40.81
2023-04-23T07:48:19.903Z,40.62
2023-04-23T07:50:47.728Z,40.16
2023-04-23T07:53:15.989Z,39.75
2023-04-23T07:55:45.494Z,39.73
2023-04-23T07:58:13.805Z,40.00
2023-04-23T08:00:43.016Z,40.33
2023-04-23T08:03:11.719Z,40.47
2023-04-23T08:05:41.323Z,40.70
2023-04-23T08:08:09.990Z,40.85
2023-04-23T08:10:38.122Z,41.20
2023-04-23T08:13:05.858Z,42.06
2023-04-23T08:15:33.615Z,41.89
2023-04-23T08:18:01.966Z,42.01
2023-04-23T08:20:29.691Z,42.65
2023-04-23T08:22:58.020Z,42.92
2023-04-23T08:25:27.382Z,42.31
2023-04-23T08:27:54.480Z,40.34
2023-04-23T08:30:22.967Z,38.41
2023-04-23T08:32:56.652Z,35.10
2023-04-23T08:35:25.133Z,34.17
2023-04-23T08:37:52.251Z,33.43
2023-04-23T08:40:19.835Z,32.57
2023-04-23T08:42:57.655Z,31.82
2023-04-23T08:45:26.457Z,31.07
2023-04-23T08:48:01.539Z,30.46
2023-04-23T08:50:31.827Z,29.54
2023-04-23T08:53:00.916Z,28.89
2023-04-23T08:55:29.298Z,28.36
2023-04-23T08:57:59.629Z,27.88
2023-04-23T09:00:27.433Z,27.47
2023-04-23T09:02:56.958Z,27.07
2023-04-23T09:05:24.920Z,26.67
2023-04-23T09:07:54.022Z,26.37
2023-04-23T09:10:21.249Z,26.14
2023-04-23T09:12:50.619Z,25.87
2023-04-23T09:15:20.269Z,25.54
2023-04-23T09:17:48.506Z,25.37
2023-04-23T09:20:16.328Z,25.15
2023-04-23T09:23:01.150Z,24.92
2023-04-23T09:25:28.825Z,24.64
2023-04-23T09:27:59.825Z,24.60
2023-04-23T09:30:31.594Z,24.39
2023-04-23T09:32:59.763Z,23.88
2023-04-23T09:35:29.386Z,23.72
2023-04-23T09:37:58.520Z,23.45
2023-04-23T09:40:28.183Z,23.75
2023-04-23T09:42:56.110Z,23.86
2023-04-23T09:45:27.011Z,24.42
2023-04-23T09:47:56.651Z,25.58
2023-04-23T09:50:39.447Z,26.63
2023-04-23T09:53:10.182Z,27.23
2023-04-23T09:55:40.237Z,27.67
2023-04-23T09:58:12.719Z,27.78
2023-04-23T10:00:40.929Z,28.98
2023-04-23T10:03:10.360Z,30.22
2023-04-23T10:06:00.651Z,31.15
2023-04-23T10:08:31.400Z,32.60
2023-04-23T10:11:13.778Z,33.53
2023-04-23T10:13:47.547Z,34.04
2023-04-23T10:16:22.485Z,35.32
2023-04-23T10:18:55.903Z,37.03
2023-04-23T10:21:39.482Z,37.94
2023-04-23T10:24:15.170Z,38.47
2023-04-23T10:26:44.461Z,39.24
2023-04-23T10:29:19.098Z,39.55
2023-04-23T10:31:46.913Z,40.21
2023-04-23T10:34:15.715Z,39.87
2023-04-23T10:36:43.387Z,39.52
2023-04-23T10:39:12.753Z,38.79
2023-04-23T10:41:42.486Z,38.19
2023-04-23T10:44:16.031Z,37.55
2023-04-23T10:46:57.907Z,35.38
2023-04-23T10:49:26.306Z,34.16
2023-04-23T10:52:19.330Z,33.80
2023-04-23T10:54:50.866Z,32.16
2023-04-23T10:57:17.883Z,32.17
2023-04-23T10:59:56.354Z,32.87
2023-04-23T11:02:25.848Z,33.15
2023-04-23T11:05:01.824Z,33.63
2023-04-23T11:07:33.928Z,34.13
2023-04-23T11:10:13.243Z,34.08
2023-04-23T11:12:41.079Z,34.08
2023-04-23T11:15:19.928Z,34.19
2023-04-23T11:17:54.635Z,34.12
2023-04-23T11:20:24.352Z,34.46
2023-04-23T11:22:53.514Z,35.49
2023-04-23T11:25:27.923Z,36.51
2023-04-23T11:27:58.420Z,37.42
2023-04-23T11:30:30.674Z,38.02
2023-04-23T11:33:00.262Z,38.44
2023-04-23T11:35:29.634Z,38.55
2023-04-23T11:37:57.200Z,39.40
2023-04-23T11:40:24.485Z,38.97
2023-04-23T11:42:55.736Z,38.37
2023-04-23T11:45:27.946Z,37.95
2023-04-23T11:47:59.389Z,36.77
2023-04-23T11:50:28.118Z,36.58
2023-04-23T11:52:55.871Z,36.05
2023-04-23T11:55:24.275Z,34.59
2023-04-23T11:57:53.025Z,32.67
2023-04-23T12:00:24.169Z,31.36
2023-04-23T12:02:51.882Z,31.04
2023-04-23T12:05:24.322Z,30.20
2023-04-23T12:07:54.921Z,30.62
2023-04-23T12:10:23.075Z,31.85
2023-04-23T12:12:54.234Z,30.73
2023-04-23T12:15:21.966Z,30.55
2023-04-23T12:18:08.446Z,29.98
2023-04-23T12:20:35.848Z,30.23
2023-04-23T12:23:06.946Z,30.19
2023-04-23T12:25:35.343Z,30.74
2023-04-23T12:28:07.617Z,31.72
2023-04-23T12:30:35.672Z,32.41
2023-04-23T12:33:04.868Z,33.38
2023-04-23T12:35:46.546Z,34.43
2023-04-23T12:38:26.945Z,34.81
2023-04-23T12:40:55.935Z,35.80
2023-04-23T12:43:23.973Z,34.94
2023-04-23T12:45:52.364Z,35.23
2023-04-23T12:48:19.907Z,35.89
2023-04-23T12:50:49.093Z,36.25
2023-04-23T12:53:16.497Z,35.33
2023-04-23T12:55:45.670Z,35.51
2023-04-23T12:58:13.204Z,35.87
2023-04-23T13:00:40.469Z,36.60
2023-04-23T13:03:08.874Z,36.60
2023-04-23T13:05:36.899Z,36.66
2023-04-23T13:08:04.517Z,35.90
2023-04-23T13:10:33.091Z,35.65
2023-04-23T13:13:01.234Z,35.81
2023-04-23T13:15:28.835Z,35.52
2023-04-23T13:17:56.418Z,35.23
2023-04-23T13:20:26.572Z,33.80
2023-04-23T13:22:54.179Z,34.01
2023-04-23T13:25:21.521Z,33.75
2023-04-23T13:27:48.946Z,33.24
2023-04-23T13:30:16.683Z,32.82
2023-04-23T13:32:44.447Z,33.14
2023-04-23T13:35:12.361Z,33.15
2023-04-23T13:37:41.506Z,32.75
2023-04-23T13:40:09.171Z,32.59
2023-04-23T13:42:36.236Z,32.59
2023-04-23T13:45:06.622Z,31.56
2023-04-23T13:47:35.268Z,31.53
2023-04-23T13:50:06.825Z,29.71
2023-04-23T13:52:40.437Z,29.70
2023-04-23T13:55:11.109Z,28.20
2023-04-23T13:57:41.810Z,27.90
2023-04-23T14:00:15.452Z,27.15
2023-04-23T14:02:45.256Z,27.28
2023-04-23T14:05:14.090Z,26.91
2023-04-23T14:07:42.504Z,26.70
2023-04-23T14:10:10.442Z,26.22
2023-04-23T14:12:39.472Z,26.31
2023-04-23T14:15:09.466Z,26.51
2023-04-23T14:17:39.674Z,26.48
2023-04-23T14:20:08.449Z,26.59
2023-04-23T14:22:36.277Z,26.55
2023-04-23T14:25:09.960Z,26.36
2023-04-23T14:27:44.864Z,26.19
2023-04-23T14:30:19.725Z,25.79
2023-04-23T14:32:49.777Z,25.51
2023-04-23T14:35:17.726Z,25.26
2023-04-23T14:37:45.976Z,24.78
2023-04-23T14:40:15.939Z,24.23
2023-04-23T14:42:43.577Z,23.88
2023-04-23T14:45:11.369Z,23.55
2023-04-23T14:47:41.070Z,23.11
2023-04-23T14:50:08.614Z,22.96
2023-04-23T14:52:36.457Z,22.83
2023-04-23T14:55:03.444Z,22.58
2023-04-23T14:57:31.296Z,22.40
2023-04-23T14:59:58.733Z,21.84
2023-04-23T15:02:26.589Z,21.53
2023-04-23T15:04:54.097Z,21.36
2023-04-23T15:07:21.598Z,21.05
2023-04-23T15:09:50.277Z,20.85
2023-04-23T15:12:40.434Z,20.63
2023-04-23T15:15:37.045Z,20.30
2023-04-23T15:18:08.605Z,20.15
2023-04-23T15:20:35.870Z,19.95
2023-04-23T15:23:03.026Z,19.62
2023-04-23T15:25:30.876Z,19.60
2023-04-23T15:27:58.399Z,19.45
2023-04-23T15:30:27.026Z,19.32
2023-04-23T15:32:58.201Z,19.06
2023-04-23T15:35:27.302Z,18.93
2023-04-23T15:37:55.314Z,18.77
2023-04-23T15:40:22.762Z,18.70
2023-04-23T15:42:50.227Z,18.61
2023-04-23T15:45:17.973Z,18.36
2023-04-23T15:47:46.125Z,18.22
2023-04-23T15:50:15.622Z,18.04
2023-04-23T15:52:43.401Z,17.91
2023-04-23T15:55:11.323Z,17.69
2023-04-23T15:57:39.161Z,17.57
2023-04-23T16:00:07.378Z,17.40
2023-04-23T16:02:39.589Z,17.30
2023-04-23T16:05:07.612Z,17.21
2023-04-23T16:07:35.106Z,17.08
2023-04-23T16:10:03.049Z,16.99
2023-04-23T16:12:31.221Z,16.85
2023-04-23T16:14:58.697Z,16.72
2023-04-23T16:17:28.679Z,16.61
2023-04-23T16:19:56.507Z,16.51
2023-04-23T16:22:25.625Z,16.39
2023-04-23T16:24:54.276Z,16.29
2023-04-23T16:27:22.087Z,16.20
2023-04-23T16:29:51.695Z,16.07
2023-04-23T16:32:21.016Z,15.94
2023-04-23T16:34:51.010Z,15.78
2023-04-23T16:37:18.451Z,15.66
2023-04-23T16:39:45.704Z,15.52
2023-04-23T16:42:12.802Z,15.42
2023-04-23T16:44:40.572Z,15.32
2023-04-23T16:47:08.072Z,15.17
2023-04-23T16:49:35.497Z,15.02
2023-04-23T16:52:04.056Z,14.85
2023-04-23T16:54:34.303Z,14.68
2023-04-23T16:57:02.506Z,14.51
2023-04-23T16:59:29.906Z,14.37
2023-04-23T17:01:57.368Z,14.23
2023-04-23T17:04:25.601Z,14.10
2023-04-23T17:06:53.301Z,13.94
2023-04-23T17:09:21.123Z,13.77
2023-04-23T17:11:49.008Z,13.60
2023-04-23T17:14:16.405Z,13.42
2023-04-23T17:16:45.749Z,13.23
2023-04-23T17:19:13.478Z,13.07
2023-04-23T17:21:41.593Z,12.90
2023-04-23T17:24:09.393Z,12.72
2023-04-23T17:26:38.946Z,12.49
2023-04-23T17:29:06.893Z,12.31
2023-04-23T17:31:37.674Z,12.18
2023-04-23T17:34:06.298Z,12.05
2023-04-23T17:36:33.242Z,11.94
2023-04-23T17:39:00.313Z,11.84
2023-04-23T17:41:27.407Z,11.80
2023-04-23T17:43:54.440Z,11.74
2023-04-23T17:46:21.904Z,11.65
2023-04-23T17:48:49.608Z,11.52
2023-04-23T17:51:16.811Z,11.37
2023-04-23T17:53:49.180Z,11.21
2023-04-23T17:56:16.579Z,11.04
2023-04-23T17:58:43.416Z,10.88
2023-04-23T18:01:11.601Z,10.72
2023-04-23T18:03:38.792Z,10.56
2023-04-23T18:06:08.731Z,10.40
2023-04-23T18:08:36.594Z,10.26
2023-04-23T18:11:04.676Z,10.12
2023-04-23T18:13:32.004Z,10.00
2023-04-23T18:15:59.116Z,9.91
2023-04-23T18:18:26.314Z,9.87
2023-04-23T18:20:53.619Z,9.82
2023-04-23T18:23:24.619Z,9.80
2023-04-23T18:25:52.094Z,9.78
2023-04-23T18:28:19.162Z,9.74
2023-04-23T18:30:46.711Z,9.68
2023-04-23T18:33:30.889Z,9.59
2023-04-23T18:36:04.130Z,9.48
2023-04-23T18:38:47.200Z,9.36
2023-04-23T18:41:14.260Z,9.21
2023-04-23T18:43:41.535Z,9.11
2023-04-23T18:46:10.791Z,9.07
2023-04-23T18:48:43.937Z,9.01
2023-04-23T18:51:26.710Z,8.96
2023-04-23T18:53:54.199Z,8.87
2023-04-23T18:56:21.149Z,8.84
2023-04-23T18:58:48.333Z,8.77
2023-04-23T19:01:15.544Z,8.71
2023-04-23T19:03:43.319Z,8.64
2023-04-23T19:06:10.706Z,8.57
2023-04-23T19:08:38.175Z,8.49
2023-04-23T19:11:06.612Z,8.46
2023-04-23T19:13:36.888Z,8.44
2023-04-23T19:16:07.324Z,8.33
2023-04-23T19:18:34.803Z,8.25
2023-04-23T19:21:01.978Z,8.19
2023-04-23T19:23:28.971Z,8.14
2023-04-23T19:25:57.288Z,8.10
2023-04-23T19:28:25.736Z,8.03
2023-04-23T19:30:53.333Z,7.93
2023-04-23T19:33:20.198Z,7.82
2023-04-23T19:35:47.317Z,7.76
2023-04-23T19:38:14.192Z,7.70
2023-04-23T19:40:42.351Z,7.66
2023-04-23T19:43:10.848Z,7.65
2023-04-23T19:45:39.591Z,7.61
2023-04-23T19:48:07.956Z,7.51
2023-04-23T19:50:36.054Z,7.42
2023-04-23T19:53:05.886Z,7.35
2023-04-23T19:55:33.434Z,7.27
2023-04-23T19:58:01.023Z,7.16
2023-04-23T20:00:31.272Z,7.13
2023-04-23T20:02:58.855Z,7.08
2023-04-23T20:05:27.002Z,7.08
2023-04-23T20:07:54.229Z,7.05
2023-04-23T20:10:21.421Z,7.01
2023-04-23T20:12:48.384Z,6.96
2023-04-23T20:15:15.166Z,6.91
2023-04-23T20:17:42.447Z,6.88
2023-04-23T20:20:10.802Z,6.83
2023-04-23T20:22:37.972Z,6.78
2023-04-23T20:25:05.574Z,6.75
2023-04-23T20:27:33.306Z,6.74
2023-04-23T20:30:00.221Z,6.72
2023-04-23T20:32:27.016Z,6.69
2023-04-23T20:34:54.519Z,6.68
2023-04-23T20:37:21.773Z,6.65
2023-04-23T20:39:50.051Z,6.62
2023-04-23T20:42:17.290Z,6.56
2023-04-23T20:44:47.186Z,6.50
2023-04-23T20:47:16.458Z,6.45
2023-04-23T20:49:43.977Z,6.40
2023-04-23T20:52:12.347Z,6.34
2023-04-23T20:54:39.630Z,6.35
2023-04-23T20:57:07.146Z,6.29
2023-04-23T20:59:34.515Z,6.25
2023-04-23T21:02:01.523Z,6.21
2023-04-23T21:04:29.082Z,6.18
2023-04-23T21:06:56.436Z,6.15
2023-04-23T21:09:23.655Z,6.10
2023-04-23T21:11:51.051Z,6.04
2023-04-23T21:14:18.043Z,5.96
2023-04-23T21:16:44.957Z,5.86
2023-04-23T21:19:12.124Z,5.80
2023-04-23T21:21:39.591Z,5.74
2023-04-23T21:24:07.722Z,5.75
2023-04-23T21:26:34.523Z,5.72
2023-04-23T21:29:01.622Z,5.68
2023-04-23T21:31:50.990Z,5.62
2023-04-23T21:34:19.769Z,5.55
2023-04-23T21:36:47.361Z,5.50
2023-04-23T21:39:14.884Z,5.50
2023-04-23T21:41:42.082Z,5.51
2023-04-23T21:44:09.620Z,5.53
2023-04-23T21:46:38.143Z,5.57
2023-04-23T21:49:05.793Z,5.59
2023-04-23T21:51:37.313Z,5.63
2023-04-23T21:54:05.972Z,5.67
2023-04-23T21:56:36.108Z,5.70
2023-04-23T21:59:03.385Z,5.72
2023-04-23T22:01:33.651Z,5.78
2023-04-23T22:04:03.551Z,5.83
2023-04-23T22:06:31.732Z,5.90
2023-04-23T22:08:59.105Z,5.96
2023-04-23T22:11:26.205Z,6.03
2023-04-23T22:13:53.257Z,6.11
2023-04-23T22:16:28.784Z,6.17
2023-04-23T22:18:57.464Z,6.23
2023-04-23T22:21:24.760Z,6.34
2023-04-23T22:23:52.265Z,6.44
2023-04-23T22:26:19.067Z,6.52
2023-04-23T22:28:46.166Z,6.61
2023-04-23T22:31:13.381Z,6.69
2023-04-23T22:33:43.209Z,6.76
2023-04-23T22:36:10.945Z,6.81
2023-04-23T22:38:37.978Z,6.84
2023-04-23T22:41:05.404Z,6.88
2023-04-23T22:43:32.697Z,6.90
2023-04-23T22:46:00.134Z,6.93
2023-04-23T22:48:28.176Z,6.96
2023-04-23T22:50:55.279Z,6.96
2023-04-23T22:53:22.633Z,6.98
2023-04-23T22:55:49.732Z,6.98
2023-04-23T22:58:17.261Z,6.96
2023-04-23T23:00:44.507Z,6.98
2023-04-23T23:03:12.155Z,6.95
2023-04-23T23:05:39.465Z,6.97
2023-04-23T23:08:09.451Z,6.97
2023-04-23T23:10:36.559Z,6.94
2023-04-23T23:13:03.949Z,6.90
2023-04-23T23:15:31.166Z,6.87
2023-04-23T23:17:58.489Z,6.87
2023-04-23T23:20:28.369Z,6.91
2023-04-23T23:22:55.453Z,6.99
2023-04-23T23:25:23.207Z,7.04
2023-04-23T23:27:50.602Z,7.06
2023-04-23T23:30:17.827Z,7.08
2023-04-23T23:32:44.847Z,7.11
2023-04-23T23:35:11.918Z,7.13
2023-04-23T23:37:39.116Z,7.11
2023-04-23T23:40:07.262Z,7.12
2023-04-23T23:42:34.085Z,7.11
2023-04-23T23:45:01.073Z,7.10
2023-04-23T23:47:28.535Z,7.01
2023-04-23T23:49:55.716Z,7.01
2023-04-23T23:52:23.624Z,6.96
2023-04-23T23:54:51.295Z,6.87
2023-04-23T23:57:24.092Z,6.80
2023-04-23T23:59:51.958Z,6.68
